East Townsend, Ohio
Current Conditions -  °F | °C
As of 7:07 PM on Monday 20 Oct 2014 (Local Time) from KLPR Reporting Station
Light Rain Light Rain  
Wind Chill: 52°   Ceiling: 1600
Heat Index: 52°   Visibility: 6mi
Dew Point: 51°   Wind: 8mph
Humidity: 97%   Direction: 270°W
Pressure: 29.85"   Gusts: NA
Location:  41.2571°N, 82.4875°W
Report Text: KLPR 202307Z AUTO 27007KT 6SM -RA BR SCT011 BKN016 OVC034 11/11 A2985 RMK AO2 P0001 T01110106 TSNO
Loading
Personal Weather Stations






























Interactive Weather Map
Tropical Storm Tracking
New forecast layout! Learn more

10-Day Weather Forecast

Advertisements
Track Severe Weather on mobile